sensor_id;sensor_type;location;lat;lon;timestamp;P1;durP1;ratioP1;P2;durP2;ratioP2
19049;SDS011;9657;45.940;12.840;2022-10-31T00:00:05;7.13;;;4.97;;
19049;SDS011;9657;45.940;12.840;2022-10-31T00:02:34;5.63;;;4.65;;
19049;SDS011;9657;45.940;12.840;2022-10-31T00:05:01;6.80;;;4.80;;
19049;SDS011;9657;45.940;12.840;2022-10-31T00:07:30;7.90;;;5.32;;
19049;SDS011;9657;45.940;12.840;2022-10-31T00:09:57;6.43;;;5.07;;
19049;SDS011;9657;45.940;12.840;2022-10-31T00:12:24;8.13;;;5.32;;
19049;SDS011;9657;45.940;12.840;2022-10-31T00:14:52;7.32;;;5.18;;
19049;SDS011;9657;45.940;12.840;2022-10-31T00:17:19;5.85;;;5.13;;
19049;SDS011;9657;45.940;12.840;2022-10-31T00:19:46;7.00;;;5.07;;
19049;SDS011;9657;45.940;12.840;2022-10-31T00:22:13;6.50;;;4.90;;
19049;SDS011;9657;45.940;12.840;2022-10-31T00:24:41;6.68;;;5.45;;
19049;SDS011;9657;45.940;12.840;2022-10-31T00:27:09;7.97;;;5.63;;
19049;SDS011;9657;45.940;12.840;2022-10-31T00:29:36;7.25;;;5.35;;
19049;SDS011;9657;45.940;12.840;2022-10-31T00:32:03;5.18;;;4.57;;
19049;SDS011;9657;45.940;12.840;2022-10-31T00:34:30;7.38;;;5.60;;
19049;SDS011;9657;45.940;12.840;2022-10-31T00:36:57;5.15;;;4.32;;
19049;SDS011;9657;45.940;12.840;2022-10-31T00:39:24;8.35;;;5.00;;
19049;SDS011;9657;45.940;12.840;2022-10-31T00:41:52;7.32;;;4.55;;
19049;SDS011;9657;45.940;12.840;2022-10-31T00:44:19;7.72;;;4.75;;
19049;SDS011;9657;45.940;12.840;2022-10-31T00:46:46;7.95;;;4.97;;
19049;SDS011;9657;45.940;12.840;2022-10-31T00:49:13;6.80;;;5.22;;
19049;SDS011;9657;45.940;12.840;2022-10-31T00:51:41;5.28;;;4.22;;
19049;SDS011;9657;45.940;12.840;2022-10-31T00:54:08;6.30;;;4.80;;
19049;SDS011;9657;45.940;12.840;2022-10-31T00:56:35;5.53;;;4.75;;
19049;SDS011;9657;45.940;12.840;2022-10-31T00:59:03;4.90;;;4.35;;
19049;SDS011;9657;45.940;12.840;2022-10-31T01:01:30;9.07;;;4.88;;
19049;SDS011;9657;45.940;12.840;2022-10-31T01:03:57;6.95;;;5.38;;
19049;SDS011;9657;45.940;12.840;2022-10-31T01:06:24;5.38;;;4.60;;
19049;SDS011;9657;45.940;12.840;2022-10-31T01:08:51;5.82;;;4.47;;
19049;SDS011;9657;45.940;12.840;2022-10-31T01:11:19;7.55;;;5.70;;
19049;SDS011;9657;45.940;12.840;2022-10-31T01:13:49;5.50;;;4.68;;
19049;SDS011;9657;45.940;12.840;2022-10-31T01:16:18;8.05;;;5.00;;
19049;SDS011;9657;45.940;12.840;2022-10-31T01:18:47;5.55;;;4.65;;
19049;SDS011;9657;45.940;12.840;2022-10-31T01:21:15;7.30;;;4.40;;
19049;SDS011;9657;45.940;12.840;2022-10-31T01:23:44;7.03;;;5.03;;
19049;SDS011;9657;45.940;12.840;2022-10-31T01:26:12;4.70;;;4.30;;
19049;SDS011;9657;45.940;12.840;2022-10-31T01:28:43;6.80;;;4.57;;
19049;SDS011;9657;45.940;12.840;2022-10-31T01:31:12;7.07;;;4.72;;
19049;SDS011;9657;45.940;12.840;2022-10-31T01:33:42;5.78;;;4.60;;
19049;SDS011;9657;45.940;12.840;2022-10-31T01:36:12;5.15;;;4.43;;
19049;SDS011;9657;45.940;12.840;2022-10-31T01:38:42;5.13;;;4.40;;
19049;SDS011;9657;45.940;12.840;2022-10-31T01:41:10;5.35;;;4.60;;
19049;SDS011;9657;45.940;12.840;2022-10-31T01:43:42;5.35;;;4.40;;
19049;SDS011;9657;45.940;12.840;2022-10-31T01:46:10;5.65;;;4.43;;
19049;SDS011;9657;45.940;12.840;2022-10-31T01:48:38;6.22;;;4.25;;
19049;SDS011;9657;45.940;12.840;2022-10-31T01:51:08;5.88;;;4.70;;
19049;SDS011;9657;45.940;12.840;2022-10-31T01:53:38;5.95;;;4.22;;
19049;SDS011;9657;45.940;12.840;2022-10-31T01:56:06;6.28;;;3.97;;
19049;SDS011;9657;45.940;12.840;2022-10-31T01:58:34;4.85;;;4.32;;
19049;SDS011;9657;45.940;12.840;2022-10-31T02:03:37;4.53;;;4.10;;
19049;SDS011;9657;45.940;12.840;2022-10-31T02:06:05;5.32;;;4.38;;
19049;SDS011;9657;45.940;12.840;2022-10-31T02:08:36;4.57;;;4.10;;
19049;SDS011;9657;45.940;12.840;2022-10-31T02:11:05;4.93;;;4.15;;
19049;SDS011;9657;45.940;12.840;2022-10-31T02:13:33;5.22;;;4.10;;
19049;SDS011;9657;45.940;12.840;2022-10-31T02:16:00;5.32;;;4.20;;
19049;SDS011;9657;45.940;12.840;2022-10-31T02:18:28;5.82;;;3.95;;
19049;SDS011;9657;45.940;12.840;2022-10-31T02:21:02;5.03;;;4.00;;
19049;SDS011;9657;45.940;12.840;2022-10-31T02:35:43;4.40;;;3.78;;
19049;SDS011;9657;45.940;12.840;2022-10-31T02:38:23;5.63;;;4.03;;
19049;SDS011;9657;45.940;12.840;2022-10-31T02:40:58;7.07;;;4.18;;
19049;SDS011;9657;45.940;12.840;2022-10-31T02:43:31;4.35;;;3.88;;
19049;SDS011;9657;45.940;12.840;2022-10-31T02:46:05;5.18;;;4.35;;
19049;SDS011;9657;45.940;12.840;2022-10-31T02:48:39;5.65;;;4.05;;
19049;SDS011;9657;45.940;12.840;2022-10-31T02:51:10;6.03;;;3.90;;
19049;SDS011;9657;45.940;12.840;2022-10-31T02:53:38;4.18;;;3.70;;
19049;SDS011;9657;45.940;12.840;2022-10-31T02:56:06;4.50;;;4.10;;
19049;SDS011;9657;45.940;12.840;2022-10-31T02:58:38;4.43;;;3.58;;
19049;SDS011;9657;45.940;12.840;2022-10-31T03:04:18;4.20;;;3.80;;
19049;SDS011;9657;45.940;12.840;2022-10-31T03:07:01;5.45;;;4.18;;
19049;SDS011;9657;45.940;12.840;2022-10-31T03:09:37;4.75;;;4.25;;
19049;SDS011;9657;45.940;12.840;2022-10-31T03:12:10;4.60;;;4.00;;
19049;SDS011;9657;45.940;12.840;2022-10-31T03:14:41;6.80;;;4.30;;
19049;SDS011;9657;45.940;12.840;2022-10-31T03:17:26;5.90;;;3.80;;
19049;SDS011;9657;45.940;12.840;2022-10-31T03:20:01;4.50;;;3.80;;
19049;SDS011;9657;45.940;12.840;2022-10-31T03:22:32;5.57;;;4.00;;
19049;SDS011;9657;45.940;12.840;2022-10-31T03:25:01;6.18;;;4.30;;
19049;SDS011;9657;45.940;12.840;2022-10-31T03:27:31;5.50;;;3.78;;
19049;SDS011;9657;45.940;12.840;2022-10-31T03:30:02;4.72;;;4.22;;
19049;SDS011;9657;45.940;12.840;2022-10-31T03:32:33;4.55;;;3.55;;
19049;SDS011;9657;45.940;12.840;2022-10-31T03:35:05;4.25;;;3.30;;
19049;SDS011;9657;45.940;12.840;2022-10-31T03:37:35;5.93;;;3.85;;
19049;SDS011;9657;45.940;12.840;2022-10-31T03:40:03;4.88;;;3.67;;
19049;SDS011;9657;45.940;12.840;2022-10-31T03:42:34;5.95;;;3.95;;
19049;SDS011;9657;45.940;12.840;2022-10-31T03:45:06;6.30;;;3.50;;
19049;SDS011;9657;45.940;12.840;2022-10-31T03:47:35;5.90;;;3.55;;
19049;SDS011;9657;45.940;12.840;2022-10-31T03:50:06;4.75;;;3.55;;
19049;SDS011;9657;45.940;12.840;2022-10-31T03:52:35;4.63;;;2.95;;
19049;SDS011;9657;45.940;12.840;2022-10-31T03:55:09;4.38;;;3.28;;
19049;SDS011;9657;45.940;12.840;2022-10-31T03:57:39;4.65;;;3.22;;
19049;SDS011;9657;45.940;12.840;2022-10-31T04:00:12;6.90;;;3.38;;
19049;SDS011;9657;45.940;12.840;2022-10-31T04:02:41;4.45;;;3.20;;
19049;SDS011;9657;45.940;12.840;2022-10-31T04:05:15;4.80;;;3.10;;
19049;SDS011;9657;45.940;12.840;2022-10-31T04:07:44;4.72;;;3.60;;
19049;SDS011;9657;45.940;12.840;2022-10-31T04:10:13;5.25;;;3.33;;
19049;SDS011;9657;45.940;12.840;2022-10-31T04:12:42;4.13;;;3.30;;
19049;SDS011;9657;45.940;12.840;2022-10-31T04:15:14;4.25;;;3.53;;
19049;SDS011;9657;45.940;12.840;2022-10-31T04:17:42;4.22;;;3.78;;
19049;SDS011;9657;45.940;12.840;2022-10-31T04:20:14;4.45;;;3.30;;
19049;SDS011;9657;45.940;12.840;2022-10-31T04:22:42;4.43;;;2.83;;
19049;SDS011;9657;45.940;12.840;2022-10-31T04:25:09;4.68;;;3.35;;
19049;SDS011;9657;45.940;12.840;2022-10-31T04:27:36;3.65;;;3.00;;
19049;SDS011;9657;45.940;12.840;2022-10-31T04:30:04;4.32;;;3.20;;
19049;SDS011;9657;45.940;12.840;2022-10-31T04:32:32;4.05;;;3.63;;
19049;SDS011;9657;45.940;12.840;2022-10-31T04:34:59;5.22;;;3.35;;
19049;SDS011;9657;45.940;12.840;2022-10-31T04:37:27;3.78;;;3.00;;
19049;SDS011;9657;45.940;12.840;2022-10-31T04:39:54;4.40;;;2.60;;
19049;SDS011;9657;45.940;12.840;2022-10-31T04:42:21;3.97;;;2.83;;
19049;SDS011;9657;45.940;12.840;2022-10-31T04:44:48;3.33;;;2.72;;
19049;SDS011;9657;45.940;12.840;2022-10-31T04:47:15;4.45;;;3.10;;
19049;SDS011;9657;45.940;12.840;2022-10-31T04:49:42;3.92;;;3.15;;
19049;SDS011;9657;45.940;12.840;2022-10-31T04:52:09;4.85;;;2.92;;
19049;SDS011;9657;45.940;12.840;2022-10-31T04:54:38;3.20;;;2.90;;
19049;SDS011;9657;45.940;12.840;2022-10-31T04:57:05;4.25;;;2.90;;
19049;SDS011;9657;45.940;12.840;2022-10-31T04:59:32;4.65;;;2.95;;
19049;SDS011;9657;45.940;12.840;2022-10-31T05:01:59;4.65;;;2.92;;
19049;SDS011;9657;45.940;12.840;2022-10-31T05:04:26;3.92;;;3.30;;
19049;SDS011;9657;45.940;12.840;2022-10-31T05:06:53;4.07;;;3.20;;
19049;SDS011;9657;45.940;12.840;2022-10-31T05:09:20;4.35;;;3.13;;
19049;SDS011;9657;45.940;12.840;2022-10-31T05:11:48;5.18;;;2.80;;
19049;SDS011;9657;45.940;12.840;2022-10-31T05:14:15;4.95;;;3.13;;
19049;SDS011;9657;45.940;12.840;2022-10-31T05:16:42;4.10;;;3.03;;
19049;SDS011;9657;45.940;12.840;2022-10-31T05:19:09;3.58;;;2.70;;
19049;SDS011;9657;45.940;12.840;2022-10-31T05:21:36;4.00;;;2.78;;
19049;SDS011;9657;45.940;12.840;2022-10-31T05:24:04;4.95;;;2.88;;
19049;SDS011;9657;45.940;12.840;2022-10-31T05:26:31;3.80;;;2.60;;
19049;SDS011;9657;45.940;12.840;2022-10-31T05:28:59;4.82;;;2.80;;
19049;SDS011;9657;45.940;12.840;2022-10-31T05:31:27;4.38;;;2.92;;
19049;SDS011;9657;45.940;12.840;2022-10-31T05:33:54;4.97;;;2.53;;
19049;SDS011;9657;45.940;12.840;2022-10-31T05:36:21;3.60;;;2.83;;
19049;SDS011;9657;45.940;12.840;2022-10-31T05:38:48;4.35;;;2.90;;
19049;SDS011;9657;45.940;12.840;2022-10-31T05:41:15;5.78;;;2.72;;
19049;SDS011;9657;45.940;12.840;2022-10-31T05:43:42;4.57;;;3.08;;
19049;SDS011;9657;45.940;12.840;2022-10-31T05:46:10;4.55;;;2.47;;
19049;SDS011;9657;45.940;12.840;2022-10-31T05:48:37;4.72;;;2.70;;
19049;SDS011;9657;45.940;12.840;2022-10-31T05:51:04;5.50;;;2.63;;
19049;SDS011;9657;45.940;12.840;2022-10-31T05:53:31;3.10;;;2.63;;
19049;SDS011;9657;45.940;12.840;2022-10-31T05:55:58;6.07;;;2.53;;
19049;SDS011;9657;45.940;12.840;2022-10-31T05:58:25;4.03;;;2.50;;
19049;SDS011;9657;45.940;12.840;2022-10-31T06:00:52;5.47;;;2.83;;
19049;SDS011;9657;45.940;12.840;2022-10-31T06:03:21;3.90;;;2.58;;
19049;SDS011;9657;45.940;12.840;2022-10-31T06:05:48;3.33;;;2.40;;
19049;SDS011;9657;45.940;12.840;2022-10-31T06:08:15;3.80;;;2.42;;
19049;SDS011;9657;45.940;12.840;2022-10-31T06:10:42;5.13;;;2.67;;
19049;SDS011;9657;45.940;12.840;2022-10-31T06:13:09;3.60;;;2.90;;
19049;SDS011;9657;45.940;12.840;2022-10-31T06:15:36;3.42;;;2.50;;
19049;SDS011;9657;45.940;12.840;2022-10-31T06:18:04;3.17;;;2.40;;
19049;SDS011;9657;45.940;12.840;2022-10-31T06:20:33;3.55;;;2.53;;
19049;SDS011;9657;45.940;12.840;2022-10-31T06:23:00;4.53;;;3.20;;
19049;SDS011;9657;45.940;12.840;2022-10-31T06:25:27;3.25;;;2.40;;
19049;SDS011;9657;45.940;12.840;2022-10-31T06:27:55;3.60;;;2.28;;
19049;SDS011;9657;45.940;12.840;2022-10-31T06:30:22;3.42;;;2.85;;
19049;SDS011;9657;45.940;12.840;2022-10-31T06:32:49;3.00;;;2.40;;
19049;SDS011;9657;45.940;12.840;2022-10-31T06:35:16;4.68;;;2.60;;
19049;SDS011;9657;45.940;12.840;2022-10-31T06:37:51;4.93;;;2.80;;
19049;SDS011;9657;45.940;12.840;2022-10-31T06:40:18;3.85;;;2.47;;
19049;SDS011;9657;45.940;12.840;2022-10-31T06:42:45;4.43;;;2.55;;
19049;SDS011;9657;45.940;12.840;2022-10-31T06:45:13;4.30;;;2.50;;
19049;SDS011;9657;45.940;12.840;2022-10-31T06:47:40;3.40;;;2.35;;
19049;SDS011;9657;45.940;12.840;2022-10-31T06:50:07;2.55;;;2.17;;
19049;SDS011;9657;45.940;12.840;2022-10-31T06:52:34;3.50;;;2.45;;
19049;SDS011;9657;45.940;12.840;2022-10-31T06:55:03;5.15;;;2.33;;
19049;SDS011;9657;45.940;12.840;2022-10-31T06:57:30;3.63;;;2.15;;
19049;SDS011;9657;45.940;12.840;2022-10-31T06:59:57;2.80;;;2.10;;
19049;SDS011;9657;45.940;12.840;2022-10-31T07:02:24;4.05;;;2.55;;
19049;SDS011;9657;45.940;12.840;2022-10-31T07:04:51;4.60;;;2.13;;
19049;SDS011;9657;45.940;12.840;2022-10-31T07:07:18;4.15;;;2.13;;
19049;SDS011;9657;45.940;12.840;2022-10-31T07:09:46;3.92;;;2.13;;
19049;SDS011;9657;45.940;12.840;2022-10-31T07:12:15;5.07;;;2.45;;
19049;SDS011;9657;45.940;12.840;2022-10-31T07:14:42;5.45;;;2.63;;
19049;SDS011;9657;45.940;12.840;2022-10-31T07:17:10;2.55;;;2.03;;
19049;SDS011;9657;45.940;12.840;2022-10-31T07:19:37;5.03;;;2.33;;
19049;SDS011;9657;45.940;12.840;2022-10-31T07:22:04;3.25;;;2.63;;
19049;SDS011;9657;45.940;12.840;2022-10-31T07:24:31;7.38;;;3.55;;
19049;SDS011;9657;45.940;12.840;2022-10-31T07:26:58;17.23;;;5.32;;
19049;SDS011;9657;45.940;12.840;2022-10-31T07:29:26;22.67;;;6.13;;
19049;SDS011;9657;45.940;12.840;2022-10-31T07:31:53;27.60;;;7.88;;
19049;SDS011;9657;45.940;12.840;2022-10-31T07:34:20;21.17;;;6.30;;
19049;SDS011;9657;45.940;12.840;2022-10-31T07:36:47;21.20;;;5.03;;
19049;SDS011;9657;45.940;12.840;2022-10-31T07:39:17;19.80;;;6.47;;
19049;SDS011;9657;45.940;12.840;2022-10-31T07:41:44;19.15;;;6.78;;
19049;SDS011;9657;45.940;12.840;2022-10-31T07:44:11;12.30;;;5.72;;
19049;SDS011;9657;45.940;12.840;2022-10-31T07:46:39;15.60;;;4.72;;
19049;SDS011;9657;45.940;12.840;2022-10-31T07:49:07;15.73;;;4.50;;
19049;SDS011;9657;45.940;12.840;2022-10-31T07:51:34;11.52;;;4.15;;
19049;SDS011;9657;45.940;12.840;2022-10-31T07:54:01;11.60;;;4.53;;
19049;SDS011;9657;45.940;12.840;2022-10-31T07:56:28;13.30;;;4.13;;
19049;SDS011;9657;45.940;12.840;2022-10-31T07:58:55;14.18;;;4.55;;
19049;SDS011;9657;45.940;12.840;2022-10-31T08:01:22;13.27;;;4.00;;
19049;SDS011;9657;45.940;12.840;2022-10-31T08:03:50;12.00;;;4.45;;
19049;SDS011;9657;45.940;12.840;2022-10-31T08:06:17;7.47;;;3.78;;
19049;SDS011;9657;45.940;12.840;2022-10-31T08:08:44;10.40;;;3.88;;
19049;SDS011;9657;45.940;12.840;2022-10-31T08:11:11;8.88;;;3.92;;
19049;SDS011;9657;45.940;12.840;2022-10-31T08:13:39;9.00;;;3.83;;
19049;SDS011;9657;45.940;12.840;2022-10-31T08:16:07;10.43;;;3.85;;
19049;SDS011;9657;45.940;12.840;2022-10-31T08:18:34;10.30;;;3.50;;
19049;SDS011;9657;45.940;12.840;2022-10-31T08:21:04;11.38;;;3.83;;
19049;SDS011;9657;45.940;12.840;2022-10-31T08:23:31;8.48;;;3.50;;
19049;SDS011;9657;45.940;12.840;2022-10-31T08:25:58;8.15;;;3.28;;
19049;SDS011;9657;45.940;12.840;2022-10-31T08:28:25;14.15;;;3.75;;
19049;SDS011;9657;45.940;12.840;2022-10-31T08:30:52;13.35;;;4.07;;
19049;SDS011;9657;45.940;12.840;2022-10-31T08:33:19;9.30;;;3.15;;
19049;SDS011;9657;45.940;12.840;2022-10-31T08:35:46;8.52;;;3.95;;
19049;SDS011;9657;45.940;12.840;2022-10-31T08:38:15;11.70;;;4.13;;
19049;SDS011;9657;45.940;12.840;2022-10-31T08:40:42;8.65;;;3.22;;
19049;SDS011;9657;45.940;12.840;2022-10-31T08:43:10;8.13;;;3.35;;
19049;SDS011;9657;45.940;12.840;2022-10-31T08:45:39;7.40;;;3.45;;
19049;SDS011;9657;45.940;12.840;2022-10-31T08:48:11;8.75;;;3.10;;
19049;SDS011;9657;45.940;12.840;2022-10-31T08:50:39;8.80;;;2.78;;
19049;SDS011;9657;45.940;12.840;2022-10-31T08:53:08;8.82;;;3.00;;
19049;SDS011;9657;45.940;12.840;2022-10-31T08:55:39;7.97;;;3.10;;
19049;SDS011;9657;45.940;12.840;2022-10-31T08:58:09;6.45;;;3.15;;
19049;SDS011;9657;45.940;12.840;2022-10-31T09:00:37;5.55;;;3.28;;
19049;SDS011;9657;45.940;12.840;2022-10-31T09:03:05;5.30;;;2.97;;
19049;SDS011;9657;45.940;12.840;2022-10-31T09:05:39;8.82;;;3.78;;
19049;SDS011;9657;45.940;12.840;2022-10-31T09:08:07;7.57;;;3.00;;
19049;SDS011;9657;45.940;12.840;2022-10-31T09:10:35;4.90;;;2.90;;
19049;SDS011;9657;45.940;12.840;2022-10-31T09:13:05;5.40;;;2.67;;
19049;SDS011;9657;45.940;12.840;2022-10-31T09:15:34;7.25;;;2.88;;
19049;SDS011;9657;45.940;12.840;2022-10-31T09:18:03;5.57;;;2.90;;
19049;SDS011;9657;45.940;12.840;2022-10-31T09:20:30;9.40;;;2.97;;
19049;SDS011;9657;45.940;12.840;2022-10-31T09:22:59;7.65;;;2.53;;
19049;SDS011;9657;45.940;12.840;2022-10-31T09:25:27;7.65;;;3.10;;
19049;SDS011;9657;45.940;12.840;2022-10-31T09:27:57;7.20;;;2.45;;
19049;SDS011;9657;45.940;12.840;2022-10-31T09:30:27;3.40;;;2.08;;
19049;SDS011;9657;45.940;12.840;2022-10-31T09:32:55;7.70;;;2.85;;
19049;SDS011;9657;45.940;12.840;2022-10-31T09:35:23;4.63;;;2.90;;
19049;SDS011;9657;45.940;12.840;2022-10-31T09:37:53;6.53;;;2.95;;
19049;SDS011;9657;45.940;12.840;2022-10-31T09:40:21;3.72;;;2.20;;
19049;SDS011;9657;45.940;12.840;2022-10-31T09:42:54;4.97;;;2.38;;
19049;SDS011;9657;45.940;12.840;2022-10-31T09:45:25;6.13;;;2.80;;
19049;SDS011;9657;45.940;12.840;2022-10-31T09:48:01;5.50;;;2.75;;
19049;SDS011;9657;45.940;12.840;2022-10-31T09:50:39;5.25;;;3.17;;
19049;SDS011;9657;45.940;12.840;2022-10-31T09:53:15;5.50;;;3.25;;
19049;SDS011;9657;45.940;12.840;2022-10-31T09:55:49;6.10;;;3.00;;
19049;SDS011;9657;45.940;12.840;2022-10-31T09:58:19;4.30;;;3.00;;
19049;SDS011;9657;45.940;12.840;2022-10-31T10:00:50;5.30;;;2.92;;
19049;SDS011;9657;45.940;12.840;2022-10-31T10:03:22;6.00;;;3.00;;
19049;SDS011;9657;45.940;12.840;2022-10-31T10:06:00;6.90;;;2.55;;
19049;SDS011;9657;45.940;12.840;2022-10-31T10:08:33;4.85;;;2.33;;
19049;SDS011;9657;45.940;12.840;2022-10-31T10:11:06;8.77;;;2.45;;
19049;SDS011;9657;45.940;12.840;2022-10-31T10:13:49;4.80;;;2.67;;
19049;SDS011;9657;45.940;12.840;2022-10-31T10:16:43;5.68;;;2.55;;
19049;SDS011;9657;45.940;12.840;2022-10-31T10:19:25;5.13;;;2.63;;
19049;SDS011;9657;45.940;12.840;2022-10-31T10:22:02;5.90;;;2.40;;
19049;SDS011;9657;45.940;12.840;2022-10-31T10:24:38;4.03;;;2.80;;
19049;SDS011;9657;45.940;12.840;2022-10-31T10:27:20;4.20;;;2.65;;
19049;SDS011;9657;45.940;12.840;2022-10-31T10:29:55;7.03;;;3.25;;
19049;SDS011;9657;45.940;12.840;2022-10-31T10:32:30;3.42;;;2.47;;
19049;SDS011;9657;45.940;12.840;2022-10-31T10:35:07;5.00;;;2.53;;
19049;SDS011;9657;45.940;12.840;2022-10-31T10:37:43;4.72;;;2.75;;
19049;SDS011;9657;45.940;12.840;2022-10-31T10:40:13;4.93;;;2.30;;
19049;SDS011;9657;45.940;12.840;2022-10-31T10:42:44;4.30;;;2.03;;
19049;SDS011;9657;45.940;12.840;2022-10-31T10:45:34;4.28;;;2.50;;
19049;SDS011;9657;45.940;12.840;2022-10-31T10:48:36;3.00;;;2.35;;
19049;SDS011;9657;45.940;12.840;2022-10-31T10:51:19;5.45;;;2.95;;
19049;SDS011;9657;45.940;12.840;2022-10-31T10:53:52;4.18;;;2.33;;
19049;SDS011;9657;45.940;12.840;2022-10-31T10:56:40;6.32;;;3.22;;
19049;SDS011;9657;45.940;12.840;2022-10-31T10:59:19;3.72;;;2.33;;
19049;SDS011;9657;45.940;12.840;2022-10-31T11:01:48;2.75;;;2.40;;
19049;SDS011;9657;45.940;12.840;2022-10-31T11:04:26;3.70;;;2.47;;
19049;SDS011;9657;45.940;12.840;2022-10-31T11:06:57;4.30;;;2.45;;
19049;SDS011;9657;45.940;12.840;2022-10-31T11:09:29;6.03;;;2.08;;
19049;SDS011;9657;45.940;12.840;2022-10-31T11:11:56;4.43;;;2.47;;
19049;SDS011;9657;45.940;12.840;2022-10-31T11:14:24;3.25;;;2.50;;
19049;SDS011;9657;45.940;12.840;2022-10-31T11:16:54;4.05;;;2.40;;
19049;SDS011;9657;45.940;12.840;2022-10-31T11:19:34;3.70;;;2.80;;
19049;SDS011;9657;45.940;12.840;2022-10-31T11:22:06;4.35;;;2.25;;
19049;SDS011;9657;45.940;12.840;2022-10-31T11:24:37;7.70;;;2.80;;
19049;SDS011;9657;45.940;12.840;2022-10-31T11:27:15;5.70;;;2.38;;
19049;SDS011;9657;45.940;12.840;2022-10-31T11:29:46;6.20;;;2.35;;
19049;SDS011;9657;45.940;12.840;2022-10-31T11:32:20;4.75;;;2.25;;
19049;SDS011;9657;45.940;12.840;2022-10-31T11:34:51;5.18;;;2.47;;
19049;SDS011;9657;45.940;12.840;2022-10-31T11:37:21;6.00;;;2.45;;
19049;SDS011;9657;45.940;12.840;2022-10-31T11:39:51;5.13;;;2.72;;
19049;SDS011;9657;45.940;12.840;2022-10-31T11:42:20;3.58;;;2.40;;
19049;SDS011;9657;45.940;12.840;2022-10-31T11:44:49;3.45;;;2.38;;
19049;SDS011;9657;45.940;12.840;2022-10-31T11:47:18;5.38;;;2.70;;
19049;SDS011;9657;45.940;12.840;2022-10-31T11:49:51;3.72;;;2.70;;
19049;SDS011;9657;45.940;12.840;2022-10-31T11:52:19;4.97;;;2.20;;
19049;SDS011;9657;45.940;12.840;2022-10-31T11:54:50;4.38;;;2.92;;
19049;SDS011;9657;45.940;12.840;2022-10-31T11:57:27;2.97;;;2.30;;
19049;SDS011;9657;45.940;12.840;2022-10-31T11:59:56;3.58;;;2.25;;
19049;SDS011;9657;45.940;12.840;2022-10-31T12:02:24;5.47;;;2.47;;
19049;SDS011;9657;45.940;12.840;2022-10-31T12:04:58;6.72;;;2.70;;
19049;SDS011;9657;45.940;12.840;2022-10-31T12:07:30;5.05;;;2.47;;
19049;SDS011;9657;45.940;12.840;2022-10-31T12:09:57;4.05;;;2.22;;
19049;SDS011;9657;45.940;12.840;2022-10-31T12:12:33;3.90;;;2.30;;
19049;SDS011;9657;45.940;12.840;2022-10-31T12:17:58;4.43;;;2.30;;
19049;SDS011;9657;45.940;12.840;2022-10-31T12:20:54;3.70;;;2.10;;
19049;SDS011;9657;45.940;12.840;2022-10-31T12:23:38;3.15;;;2.47;;
19049;SDS011;9657;45.940;12.840;2022-10-31T12:26:17;4.00;;;2.38;;
19049;SDS011;9657;45.940;12.840;2022-10-31T12:28:52;3.30;;;2.42;;
19049;SDS011;9657;45.940;12.840;2022-10-31T12:31:43;3.50;;;2.17;;
19049;SDS011;9657;45.940;12.840;2022-10-31T12:34:33;2.85;;;1.85;;
19049;SDS011;9657;45.940;12.840;2022-10-31T12:37:20;2.50;;;2.05;;
19049;SDS011;9657;45.940;12.840;2022-10-31T12:40:00;2.67;;;2.20;;
19049;SDS011;9657;45.940;12.840;2022-10-31T12:42:42;5.20;;;2.85;;
19049;SDS011;9657;45.940;12.840;2022-10-31T12:45:27;3.83;;;2.20;;
19049;SDS011;9657;45.940;12.840;2022-10-31T12:51:14;4.00;;;2.53;;
19049;SDS011;9657;45.940;12.840;2022-10-31T12:53:57;3.40;;;2.60;;
19049;SDS011;9657;45.940;12.840;2022-10-31T12:56:39;3.58;;;2.72;;
19049;SDS011;9657;45.940;12.840;2022-10-31T12:59:15;6.47;;;2.92;;
19049;SDS011;9657;45.940;12.840;2022-10-31T13:01:55;3.33;;;2.63;;
19049;SDS011;9657;45.940;12.840;2022-10-31T13:04:30;4.70;;;2.72;;
19049;SDS011;9657;45.940;12.840;2022-10-31T13:07:05;3.53;;;3.10;;
19049;SDS011;9657;45.940;12.840;2022-10-31T13:09:40;3.17;;;2.80;;
19049;SDS011;9657;45.940;12.840;2022-10-31T13:12:11;5.10;;;2.80;;
19049;SDS011;9657;45.940;12.840;2022-10-31T13:14:44;4.50;;;3.08;;
19049;SDS011;9657;45.940;12.840;2022-10-31T13:17:16;3.05;;;2.70;;
19049;SDS011;9657;45.940;12.840;2022-10-31T13:19:48;4.30;;;2.80;;
19049;SDS011;9657;45.940;12.840;2022-10-31T13:22:20;4.43;;;3.13;;
19049;SDS011;9657;45.940;12.840;2022-10-31T13:24:52;4.32;;;2.60;;
19049;SDS011;9657;45.940;12.840;2022-10-31T13:27:25;4.95;;;2.92;;
19049;SDS011;9657;45.940;12.840;2022-10-31T13:29:57;3.97;;;2.47;;
19049;SDS011;9657;45.940;12.840;2022-10-31T13:32:28;3.42;;;2.38;;
19049;SDS011;9657;45.940;12.840;2022-10-31T13:35:13;3.75;;;2.55;;
19049;SDS011;9657;45.940;12.840;2022-10-31T13:37:44;4.93;;;3.15;;
19049;SDS011;9657;45.940;12.840;2022-10-31T13:40:32;2.95;;;2.45;;
19049;SDS011;9657;45.940;12.840;2022-10-31T13:43:06;4.03;;;2.90;;
19049;SDS011;9657;45.940;12.840;2022-10-31T13:45:49;2.75;;;2.05;;
19049;SDS011;9657;45.940;12.840;2022-10-31T13:48:19;4.68;;;2.47;;
19049;SDS011;9657;45.940;12.840;2022-10-31T13:51:10;3.65;;;2.63;;
19049;SDS011;9657;45.940;12.840;2022-10-31T13:53:38;4.72;;;2.55;;
19049;SDS011;9657;45.940;12.840;2022-10-31T13:56:20;4.07;;;2.22;;
19049;SDS011;9657;45.940;12.840;2022-10-31T13:59:16;4.07;;;2.33;;
19049;SDS011;9657;45.940;12.840;2022-10-31T14:01:46;3.13;;;2.30;;
19049;SDS011;9657;45.940;12.840;2022-10-31T14:04:16;2.85;;;2.42;;
19049;SDS011;9657;45.940;12.840;2022-10-31T14:06:47;4.20;;;2.40;;
19049;SDS011;9657;45.940;12.840;2022-10-31T14:09:23;3.88;;;2.63;;
19049;SDS011;9657;45.940;12.840;2022-10-31T14:11:55;2.92;;;2.13;;
19049;SDS011;9657;45.940;12.840;2022-10-31T14:14:27;4.90;;;2.53;;
19049;SDS011;9657;45.940;12.840;2022-10-31T14:16:59;2.83;;;2.30;;
19049;SDS011;9657;45.940;12.840;2022-10-31T14:19:27;4.28;;;2.47;;
19049;SDS011;9657;45.940;12.840;2022-10-31T14:21:54;3.65;;;2.78;;
19049;SDS011;9657;45.940;12.840;2022-10-31T14:24:31;3.50;;;2.45;;
19049;SDS011;9657;45.940;12.840;2022-10-31T14:27:02;5.20;;;2.90;;
19049;SDS011;9657;45.940;12.840;2022-10-31T14:29:50;4.35;;;2.40;;
19049;SDS011;9657;45.940;12.840;2022-10-31T14:32:19;5.85;;;2.55;;
19049;SDS011;9657;45.940;12.840;2022-10-31T14:34:52;3.00;;;2.50;;
19049;SDS011;9657;45.940;12.840;2022-10-31T14:40:26;3.35;;;2.45;;
19049;SDS011;9657;45.940;12.840;2022-10-31T14:45:53;3.22;;;2.47;;
19049;SDS011;9657;45.940;12.840;2022-10-31T14:48:33;5.30;;;3.13;;
19049;SDS011;9657;45.940;12.840;2022-10-31T14:51:13;2.60;;;2.40;;
19049;SDS011;9657;45.940;12.840;2022-10-31T14:53:45;3.92;;;2.80;;
19049;SDS011;9657;45.940;12.840;2022-10-31T14:56:16;3.65;;;2.15;;
19049;SDS011;9657;45.940;12.840;2022-10-31T14:58:48;3.25;;;2.30;;
19049;SDS011;9657;45.940;12.840;2022-10-31T15:01:17;3.55;;;2.15;;
19049;SDS011;9657;45.940;12.840;2022-10-31T15:03:48;2.95;;;2.35;;
19049;SDS011;9657;45.940;12.840;2022-10-31T15:06:17;4.07;;;2.65;;
19049;SDS011;9657;45.940;12.840;2022-10-31T15:08:47;2.85;;;2.40;;
19049;SDS011;9657;45.940;12.840;2022-10-31T15:11:16;3.67;;;2.63;;
19049;SDS011;9657;45.940;12.840;2022-10-31T15:13:44;3.55;;;2.63;;
19049;SDS011;9657;45.940;12.840;2022-10-31T15:16:15;3.30;;;2.53;;
19049;SDS011;9657;45.940;12.840;2022-10-31T15:18:49;3.83;;;2.53;;
19049;SDS011;9657;45.940;12.840;2022-10-31T15:21:20;3.15;;;2.63;;
19049;SDS011;9657;45.940;12.840;2022-10-31T15:23:49;3.33;;;2.85;;
19049;SDS011;9657;45.940;12.840;2022-10-31T15:26:19;5.90;;;2.30;;
19049;SDS011;9657;45.940;12.840;2022-10-31T15:28:57;4.43;;;2.35;;
19049;SDS011;9657;45.940;12.840;2022-10-31T15:31:28;2.35;;;1.92;;
19049;SDS011;9657;45.940;12.840;2022-10-31T15:33:56;3.53;;;2.60;;
19049;SDS011;9657;45.940;12.840;2022-10-31T15:36:29;3.70;;;2.38;;
19049;SDS011;9657;45.940;12.840;2022-10-31T15:38:57;3.58;;;2.42;;